Home > Products > Valid Products > TAF

000
FTUS45 KVEF 241100
TAFBIH
TAF
KBIH 241120Z 2412/2512 32006KT P6SM SKC
     FM242000 17017G25KT P6SM SKC
     FM250200 16012KT P6SM SKC
     FM250700 19012KT P6SM SKC=



000
FTUS45 KVEF 241100
TAFDAG
TAF
KDAG 241120Z 2412/2512 32006KT P6SM SKC
     FM241900 08008KT P6SM SKC
     FM250200 25008KT P6SM SKC=



000
FTUS45 KVEF 241100
TAFEED
TAF
KEED 241120Z 2412/2512 VRB05KT P6SM SKC
     FM242000 18007KT P6SM SKC
     FM250200 23007KT P6SM SKC=



000
FTUS45 KVEF 241100
TAFVGT
TAF
KVGT 241120Z 2412/2512 VRB04KT P6SM SKC
     FM242000 13008KT P6SM SKC
     FM250300 VRB05KT P6SM SKC=



000
FTUS45 KVEF 241100
TAFLAS
TAF
KLAS 241120Z 2412/2512 21007KT P6SM SKC
     FM241500 VRB05KT P6SM SKC
     FM242100 15008KT P6SM SKC
     FM250200 21009KT P6SM SKC=



000
FTUS45 KVEF 240800 AAA
TAFLAS
TAF AMD
KLAS 240847Z 2409/2506 21008KT P6SM SKC
     FM241500 VRB05KT P6SM SKC
     FM242100 15008KT P6SM SKC
     FM250200 21008KT P6SM SKC=



000
FTUS45 KVEF 240500
TAFEED
TAF
KEED 240523Z 2406/2506 VRB05KT P6SM SKC
     FM242000 18007KT P6SM SKC
     FM250200 23007KT P6SM SKC=



000
FTUS45 KVEF 240500
TAFBIH
TAF
KBIH 240523Z 2406/2506 32006KT P6SM FEW200
     FM241900 17017G25KT P6SM SKC
     FM250200 16012KT P6SM SKC=



000
FTUS45 KVEF 240500
TAFDAG
TAF
KDAG 240523Z 2406/2506 27008KT P6SM SKC
     FM242000 08008KT P6SM SKC
     FM250200 24007KT P6SM SKC=



000
FTUS45 KVEF 240500
TAFLAS
TAF
KLAS 240523Z 2406/2506 21008KT P6SM SKC
     FM241500 VRB05KT P6SM SKC
     FM242100 15008KT P6SM SKC
     FM250200 21008KT P6SM SKC=



000
FTUS45 KVEF 240500
TAFVGT
TAF
KVGT 240523Z 2406/2506 VRB05KT P6SM SKC
     FM242000 13008KT P6SM SKC
     FM250300 VRB04KT P6SM SKC=



000
FTUS45 KVEF 240200 AAA
TAFLAS
TAF AMD
KLAS 240250Z 2403/2424 21008KT P6SM FEW250
     FM241500 VRB05KT P6SM SKC
     FM242100 15008KT P6SM SKC=



000
FTUS45 KVEF 240200 AAA
TAFLAS
TAF AMD
KLAS 240250Z 2403/2424 21008KT P6SM FEW250
     FM241500 VRB05KT P6SM SKC
     FM242100 15008KT P6SM SKC=



000
FTUS45 KVEF 232300
TAFLAS
TAF
KLAS 232320Z 2400/2424 11006KT P6SM SCT250
     FM240400 21008KT P6SM SKC
     FM241500 VRB05KT P6SM SKC
     FM242100 15008KT P6SM SKC=



000
FTUS45 KVEF 232300
TAFVGT
TAF
KVGT 232320Z 2400/2424 15006KT P6SM SCT250
     FM240400 VRB05KT P6SM SKC
     FM242000 15008KT P6SM SKC=



000
FTUS45 KVEF 232300
TAFEED
TAF
KEED 232320Z 2400/2424 VRB05KT P6SM SKC
     FM240300 25007KT P6SM SKC
     FM241200 VRB05KT P6SM SKC
     FM242000 18007KT P6SM SKC=



000
FTUS45 KVEF 232300
TAFDAG
TAF
KDAG 232320Z 2400/2424 VRB05KT P6SM SKC
     FM240500 27008KT P6SM SKC
     FM242000 06008KT P6SM SKC=



000
FTUS45 KVEF 232300
TAFBIH
TAF
KBIH 232320Z 2400/2424 17010KT P6SM SCT200 BKN250
     FM240600 32006KT P6SM SKC
     FM242000 17013G22KT P6SM SKC=



000
FTUS45 KVEF 232100 AAA
TAFLAS
TAF AMD
KLAS 232102Z 2321/2418 10006KT P6SM BKN250
     FM240400 21008KT P6SM SKC=



000
FTUS45 KVEF 231700
TAFBIH
TAF
KBIH 231720Z 2318/2418 VRB05KT P6SM SCT200 BKN250
     FM232000 17010KT P6SM SCT200 BKN250
     FM240600 32006KT P6SM SKC=



000
FTUS45 KVEF 231700
TAFLAS
TAF
KLAS 231720Z 2318/2418 VRB05KT P6SM BKN250
     FM232000 10006KT P6SM BKN250
     FM240400 21008KT P6SM SKC=



000
FTUS45 KVEF 231700
TAFVGT
TAF
KVGT 231720Z 2318/2418 15006KT P6SM BKN250
     FM240400 VRB05KT P6SM SKC=



000
FTUS45 KVEF 231700
TAFDAG
TAF
KDAG 231720Z 2318/2418 VRB05KT P6SM SKC
     FM232000 03007KT P6SM SKC
     FM240200 VRB04KT P6SM SKC=



000
FTUS45 KVEF 231700
TAFEED
TAF
KEED 231720Z 2318/2418 VRB05KT P6SM SKC
     FM240300 25007KT P6SM SKC=



000
FTUS45 KVEF 231400 AAA
TAFLAS
TAF AMD
KLAS 231446Z 2315/2412 VRB05KT P6SM BKN250
     FM232000 10006KT P6SM SCT250
     FM240300 21008KT P6SM SKC=



000
FTUS45 KVEF 231400 AAA
TAFLAS
TAF AMD
KLAS 231446Z 2315/2412 VRB05KT P6SM BKN250
     FM232000 10006KT P6SM SCT250
     FM240300 21008KT P6SM SKC=



000
FTUS45 KVEF 231100
TAFDAG
TAF
KDAG 231120Z 2312/2412 27008KT P6SM FEW250
     FM232000 03007KT P6SM FEW250
     FM240200 VRB04KT P6SM SKC=



000
FTUS45 KVEF 231100
TAFVGT
TAF
KVGT 231120Z 2312/2412 33006KT P6SM BKN250
     FM231900 15006KT P6SM FEW250
     FM240200 VRB05KT P6SM SKC=



000
FTUS45 KVEF 231100
TAFEED
TAF
KEED 231120Z 2312/2412 24007KT P6SM FEW250
     FM231400 VRB04KT P6SM FEW250
     FM240300 25007KT P6SM SKC=



000
FTUS45 KVEF 231100
TAFBIH
TAF
KBIH 231120Z 2312/2412 32006KT P6SM FEW150 BKN250
     FM232000 17010KT P6SM FEW250
     FM240500 32006KT P6SM SKC=



000
FTUS45 KVEF 231100
TAFLAS
TAF
KLAS 231120Z 2312/2412 21008KT P6SM BKN250
     FM231900 15008KT P6SM FEW250
     FM240300 21008KT P6SM SKC=



000
FTUS45 KVEF 230800 AAA
TAFLAS
TAF AMD
KLAS 230846Z 2309/2406 21008KT P6SM SCT250
     FM231900 15008KT P6SM FEW250
     FM240300 21008KT P6SM SKC=



000
FTUS45 KVEF 230500
TAFDAG
TAF
KDAG 230528Z 2306/2406 27007KT P6SM FEW250
     FM232000 03007KT P6SM SKC
     FM240200 VRB04KT P6SM SKC=



000
FTUS45 KVEF 230500
TAFVGT
TAF
KVGT 230528Z 2306/2406 33006KT P6SM FEW250
     FM231900 15006KT P6SM FEW250
     FM240200 VRB05KT P6SM SKC=



000
FTUS45 KVEF 230500
TAFEED
TAF
KEED 230528Z 2306/2406 25008KT P6SM FEW250
     FM231400 VRB06KT P6SM SKC
     FM240300 25007KT P6SM SKC=



000
FTUS45 KVEF 230500
TAFBIH
TAF
KBIH 230528Z 2306/2406 32006KT P6SM SCT250
     FM232000 17010KT P6SM FEW250
     FM240500 32006KT P6SM SKC=



000
FTUS45 KVEF 230500
TAFLAS
TAF
KLAS 230528Z 2306/2406 21008KT P6SM FEW250
     FM231900 15008KT P6SM FEW250
     FM240300 21008KT P6SM SKC=



000
FTUS45 KVEF 230200 AAA
TAFLAS
TAF AMD
KLAS 230248Z 2303/2324 21008KT P6SM SCT250
     FM231800 15008KT P6SM FEW250=



000
FTUS45 KVEF 222300
TAFLAS
TAF
KLAS 222320Z 2300/2324 VRB06KT P6SM SCT250
     FM230300 21008KT P6SM SCT250
     FM231800 15008KT P6SM FEW250=



000
FTUS45 KVEF 222300
TAFVGT
TAF
KVGT 222320Z 2300/2324 15007KT P6SM SCT250
     FM230300 VRB05KT P6SM SCT250
     FM230600 33006KT P6SM SCT250
     FM231800 15006KT P6SM FEW250=



000
FTUS45 KVEF 222300
TAFBIH
TAF
KBIH 222320Z 2300/2324 17008KT P6SM SCT250
     FM230400 34007KT P6SM SCT250
     FM231800 17009KT P6SM SCT250=



000
FTUS45 KVEF 222300
TAFEED
TAF
KEED 222320Z 2300/2324 VRB05KT P6SM FEW250
     FM230200 26007KT P6SM FEW250
     FM231800 06006KT P6SM FEW250=



000
FTUS45 KVEF 222300
TAFDAG
TAF
KDAG 222320Z 2300/2324 03005KT P6SM FEW250
     FM230300 27007KT P6SM FEW250
     FM232000 33007KT P6SM FEW250=



000
FTUS45 KVEF 222000 AAA
TAFLAS
TAF AMD
KLAS 222032Z 2221/2318 08006KT P6SM SCT250
     FM230300 19008KT P6SM SCT250=



000
FTUS45 KVEF 222000 AAA
TAFLAS
TAF AMD
KLAS 222032Z 2221/2318 08006KT P6SM SCT250
     FM230300 19008KT P6SM SCT250=



000
FTUS45 KVEF 221700
TAFDAG
TAF
KDAG 221720Z 2218/2318 27009KT P6SM FEW250
     FM222100 06005KT P6SM FEW250
     FM230300 27007KT P6SM FEW250=



000
FTUS45 KVEF 221700
TAFBIH
TAF
KBIH 221720Z 2218/2318 33007KT P6SM FEW250
     FM221900 17008KT P6SM BKN250
     FM230300 34007KT P6SM SCT250=



000
FTUS45 KVEF 221700
TAFVGT
TAF
KVGT 221720Z 2218/2318 VRB05KT P6SM SCT250
     FM222100 12007KT P6SM SCT250
     FM230300 VRB05KT P6SM FEW250
     FM230700 33006KT P6SM FEW250=



000
FTUS45 KVEF 221700
TAFEED
TAF
KEED 221720Z 2218/2318 VRB05KT P6SM SCT250
     FM222100 16007KT P6SM FEW250
     FM230200 24007KT P6SM FEW250=



000
FTUS45 KVEF 221700
TAFLAS
TAF
KLAS 221720Z 2218/2318 VRB05KT P6SM SCT250
     FM221900 08006KT P6SM SCT250
     FM230200 19008KT P6SM SCT250=



000
FTUS45 KVEF 221700
TAFVGT
TAF
KVGT 221720Z 2218/2318 VRB05KT P6SM SCT250
     FM222100 12007KT P6SM SCT250
     FM230300 VRB05KT P6SM FEW250
     FM230700 33006KT P6SM FEW250=



000
FTUS45 KVEF 221700
TAFLAS
TAF
KLAS 221720Z 2218/2318 VRB05KT P6SM SCT250
     FM221900 08006KT P6SM SCT250
     FM230200 19008KT P6SM SCT250=



000
FTUS45 KVEF 221700
TAFBIH
TAF
KBIH 221720Z 2218/2318 33007KT P6SM FEW250
     FM221900 17008KT P6SM BKN250
     FM230300 34007KT P6SM SCT250=



000
FTUS45 KVEF 221700
TAFDAG
TAF
KDAG 221720Z 2218/2318 27009KT P6SM FEW250
     FM222100 06005KT P6SM FEW250
     FM230300 27007KT P6SM FEW250=



000
FTUS45 KVEF 221700
TAFEED
TAF
KEED 221720Z 2218/2318 VRB05KT P6SM SCT250
     FM222100 16007KT P6SM FEW250
     FM230200 24007KT P6SM FEW250=



000
FTUS45 KVEF 221400 AAA
TAFLAS
TAF AMD
KLAS 221440Z 2215/2312 VRB05KT P6SM SCT250
     FM221900 08006KT P6SM SCT250
     FM230200 19008KT P6SM SCT250=



000
FTUS45 KVEF 221100
TAFEED
TAF
KEED 221120Z 2212/2312 23006KT P6SM FEW250
     FM221300 VRB05KT P6SM SCT250
     FM222100 16007KT P6SM FEW250
     FM230200 24007KT P6SM FEW250=



000
FTUS45 KVEF 221100
TAFBIH
TAF
KBIH 221120Z 2212/2312 33007KT P6SM FEW250
     FM221900 17008KT P6SM BKN250
     FM230300 34007KT P6SM SCT250=



000
FTUS45 KVEF 221100
TAFVGT
TAF
KVGT 221120Z 2212/2312 31007KT P6SM FEW250
     FM221800 12007KT P6SM SCT250
     FM230300 VRB05KT P6SM FEW250
     FM230700 33006KT P6SM FEW250=



000
FTUS45 KVEF 221100
TAFDAG
TAF
KDAG 221120Z 2212/2312 27009KT P6SM FEW250
     FM221800 VRB05KT P6SM FEW250
     FM230300 27007KT P6SM FEW250=



000
FTUS45 KVEF 221100
TAFLAS
TAF
KLAS 221120Z 2212/2312 21007KT P6SM FEW250
     FM221500 VRB05KT P6SM SCT250
     FM221900 08006KT P6SM SCT250
     FM230200 19008KT P6SM FEW250=



000
FTUS45 KVEF 220800 AAA
TAFLAS
TAF AMD
KLAS 220846Z 2209/2306 19010KT P6SM SCT250
     FM221500 VRB05KT P6SM SCT250
     FM221900 08006KT P6SM SCT250
     FM230200 19008KT P6SM FEW250=



000
FTUS45 KVEF 220500
TAFDAG
TAF
KDAG 220520Z 2206/2306 27009KT P6SM FEW250
     FM221800 VRB05KT P6SM FEW250
     FM230300 27007KT P6SM FEW250=



000
FTUS45 KVEF 220500
TAFLAS
TAF
KLAS 220520Z 2206/2306 19010KT P6SM SCT250
     FM221500 VRB05KT P6SM SCT250
     FM221900 08006KT P6SM SCT250
     FM230200 19008KT P6SM FEW250=



000
FTUS45 KVEF 220500
TAFBIH
TAF
KBIH 220520Z 2206/2306 33007KT P6SM FEW250
     FM221900 17008KT P6SM BKN250
     FM230300 34007KT P6SM SCT250=



000
FTUS45 KVEF 220500
TAFEED
TAF
KEED 220520Z 2206/2306 25006KT P6SM FEW250
     FM221300 VRB05KT P6SM SCT250
     FM222100 16007KT P6SM FEW250
     FM230200 24007KT P6SM FEW250=



000
FTUS45 KVEF 220500
TAFVGT
TAF
KVGT 220520Z 2206/2306 31007KT P6SM SCT250
     FM221800 12007KT P6SM SCT250
     FM230300 VRB05KT P6SM FEW250=



000
FTUS45 KVEF 220500
TAFEED
TAF
KEED 220520Z 2206/2306 25006KT P6SM FEW250
     FM221300 VRB05KT P6SM SCT250
     FM222100 16007KT P6SM FEW250
     FM230200 24007KT P6SM FEW250=



000
FTUS45 KVEF 220500
TAFDAG
TAF
KDAG 220520Z 2206/2306 27009KT P6SM FEW250
     FM221800 VRB05KT P6SM FEW250
     FM230300 27007KT P6SM FEW250=



000
FTUS45 KVEF 220500
TAFLAS
TAF
KLAS 220520Z 2206/2306 19010KT P6SM SCT250
     FM221500 VRB05KT P6SM SCT250
     FM221900 08006KT P6SM SCT250
     FM230200 19008KT P6SM FEW250=



000
FTUS45 KVEF 220500
TAFBIH
TAF
KBIH 220520Z 2206/2306 33007KT P6SM FEW250
     FM221900 17008KT P6SM BKN250
     FM230300 34007KT P6SM SCT250=



000
FTUS45 KVEF 220500
TAFVGT
TAF
KVGT 220520Z 2206/2306 31007KT P6SM SCT250
     FM221800 12007KT P6SM SCT250
     FM230300 VRB05KT P6SM FEW250=



000
FTUS45 KVEF 220200 AAA
TAFLAS
TAF AMD
KLAS 220245Z 2203/2224 21012KT P6SM SCT250
     FM220600 20008KT P6SM SCT250
     FM221500 VRB05KT P6SM SCT250
     FM221900 08006KT P6SM SCT250=



000
FTUS45 KVEF 220200 AAA
TAFLAS
TAF AMD
KLAS 220245Z 2203/2224 21012KT P6SM SCT250
     FM220600 20008KT P6SM SCT250
     FM221500 VRB05KT P6SM SCT250
     FM221900 08006KT P6SM SCT250=



000
FTUS45 KVEF 212300
TAFDAG
TAF
KDAG 212320Z 2200/2224 27009KT P6SM SCT250
     FM221800 VRB05KT P6SM SCT250=



000
FTUS45 KVEF 212300
TAFLAS
TAF
KLAS 212320Z 2200/2224 21012KT P6SM SCT250
     FM220600 20008KT P6SM SCT250
     FM221500 VRB05KT P6SM SCT250
     FM221900 08006KT P6SM SCT250=



000
FTUS45 KVEF 212300
TAFVGT
TAF
KVGT 212320Z 2200/2224 19011KT P6SM SCT250
     FM220300 25008KT P6SM SCT250
     FM220700 31007KT P6SM SCT250
     FM221800 12007KT P6SM SCT250=



000
FTUS45 KVEF 212300
TAFDAG
TAF
KDAG 212320Z 2200/2224 27009KT P6SM SCT250
     FM221800 VRB05KT P6SM SCT250=



000
FTUS45 KVEF 212300
TAFBIH
TAF
KBIH 212320Z 2200/2224 VRB05KT P6SM BKN250
     FM220300 35007KT P6SM BKN250
     FM221900 17008KT P6SM BKN250=



000
FTUS45 KVEF 212300
TAFEED
TAF
KEED 212320Z 2200/2224 25006KT P6SM SCT250
     FM221300 VRB05KT P6SM SCT250=



000
FTUS45 KVEF 212300
TAFLAS
TAF
KLAS 212320Z 2200/2224 21012KT P6SM SCT250
     FM220600 20008KT P6SM SCT250
     FM221500 VRB05KT P6SM SCT250
     FM221900 08006KT P6SM SCT250=



000
FTUS45 KVEF 212300
TAFVGT
TAF
KVGT 212320Z 2200/2224 19011KT P6SM SCT250
     FM220300 25008KT P6SM SCT250
     FM220700 31007KT P6SM SCT250
     FM221800 12007KT P6SM SCT250=



000
FTUS45 KVEF 212300
TAFBIH
TAF
KBIH 212320Z 2200/2224 VRB05KT P6SM BKN250
     FM220300 35007KT P6SM BKN250
     FM221900 17008KT P6SM BKN250=



000
FTUS45 KVEF 212300
TAFEED
TAF
KEED 212320Z 2200/2224 25006KT P6SM SCT250
     FM221300 VRB05KT P6SM SCT250=



000
FTUS45 KVEF 212000 AAA
TAFLAS
TAF AMD
KLAS 212025Z 2120/2218 21012G20KT P6SM SCT250
     FM220600 21008KT P6SM SCT250=



000
FTUS45 KVEF 212000 AAA
TAFVGT
TAF AMD
KVGT 212025Z 2120/2218 19010G18KT P6SM SCT250
     FM220400 31007KT P6SM SCT250=



000
FTUS45 KVEF 211700
TAFEED
TAF
KEED 211730Z 2118/2218 19008KT P6SM FEW250
     FM220300 25006KT P6SM SCT250=



000
FTUS45 KVEF 211700
TAFBIH
TAF
KBIH 211730Z 2118/2218 35010KT P6SM BKN250
     FM220100 VRB05KT P6SM BKN250
     FM220300 35007KT P6SM SCT250=



000
FTUS45 KVEF 211700
TAFDAG
TAF
KDAG 211730Z 2118/2218 28014KT P6SM SCT250
     FM212200 27010KT P6SM SCT250=



000
FTUS45 KVEF 211700
TAFVGT
TAF
KVGT 211730Z 2118/2218 16010KT P6SM FEW250
     FM212100 19010KT P6SM SCT250
     FM220400 31007KT P6SM SCT250=



000
FTUS45 KVEF 211700
TAFLAS
TAF
KLAS 211730Z 2118/2218 18012KT P6SM FEW250
     FM212100 21012KT P6SM SCT250
     FM220600 21008KT P6SM SCT250=



000
FTUS45 KVEF 211400 AAA
TAFLAS
TAF AMD
KLAS 211444Z 2115/2212 18010KT P6SM FEW250
     FM212000 21010KT P6SM SCT250=



000
FTUS45 KVEF 211400 AAA
TAFLAS
TAF AMD
KLAS 211444Z 2115/2212 18010KT P6SM FEW250
     FM212000 21010KT P6SM SCT250=



    US Dept of Commerce
    National Oceanic and Atmospheric Administration
    National Weather Service
    1325 East West Highway
    Silver Spring, MD 20910
    Page Author: NWS Internet Services Team
Disclaimer
Information Quality
Credits
Glossary
Privacy Policy
Freedom of Information Act (FOIA)
About Us
Career Opportunities